sensor_id;sensor_type;location;lat;lon;timestamp;pressure;altitude;pressure_sealevel;temperature;humidity
76611;BME280;65503;48.534;9.062;2023-08-06T00:00:52;96270.72;;;17.28;74.41
76611;BME280;65503;48.534;9.062;2023-08-06T00:03:19;96264.69;;;17.23;74.44
76611;BME280;65503;48.534;9.062;2023-08-06T00:05:45;96262.63;;;17.20;75.01
76611;BME280;65503;48.534;9.062;2023-08-06T00:08:12;96260.25;;;17.18;74.47
76611;BME280;65503;48.534;9.062;2023-08-06T00:10:39;96252.84;;;17.15;74.31
76611;BME280;65503;48.534;9.062;2023-08-06T00:13:06;96247.59;;;17.10;74.05
76611;BME280;65503;48.534;9.062;2023-08-06T00:15:33;96246.00;;;17.09;73.99
76611;BME280;65503;48.534;9.062;2023-08-06T00:17:59;96242.88;;;17.07;73.42
76611;BME280;65503;48.534;9.062;2023-08-06T00:20:26;96254.22;;;16.94;75.01
76611;BME280;65503;48.534;9.062;2023-08-06T00:22:52;96255.28;;;16.93;74.94
76611;BME280;65503;48.534;9.062;2023-08-06T00:25:19;96258.00;;;16.88;74.86
76611;BME280;65503;48.534;9.062;2023-08-06T00:27:46;96259.69;;;16.84;74.42
76611;BME280;65503;48.534;9.062;2023-08-06T00:30:12;96259.69;;;16.84;74.50
76611;BME280;65503;48.534;9.062;2023-08-06T00:32:39;96258.09;;;16.83;74.36
76611;BME280;65503;48.534;9.062;2023-08-06T00:35:06;96249.59;;;16.81;73.95
76611;BME280;65503;48.534;9.062;2023-08-06T00:37:32;96250.97;;;16.78;73.90
76611;BME280;65503;48.534;9.062;2023-08-06T00:39:59;96245.44;;;16.75;74.34
76611;BME280;65503;48.534;9.062;2023-08-06T00:42:25;96241.78;;;16.71;74.11
76611;BME280;65503;48.534;9.062;2023-08-06T00:44:52;96242.84;;;16.70;74.18
76611;BME280;65503;48.534;9.062;2023-08-06T00:47:19;96237.53;;;16.70;73.89
76611;BME280;65503;48.534;9.062;2023-08-06T00:49:45;96231.72;;;16.68;73.70
76611;BME280;65503;48.534;9.062;2023-08-06T00:52:12;96230.66;;;16.69;73.31
76611;BME280;65503;48.534;9.062;2023-08-06T00:54:40;96232.81;;;16.67;73.44
76611;BME280;65503;48.534;9.062;2023-08-06T00:57:07;96228.03;;;16.64;72.99
76611;BME280;65503;48.534;9.062;2023-08-06T00:59:35;96225.41;;;16.59;72.75
76611;BME280;65503;48.534;9.062;2023-08-06T01:02:02;96231.09;;;16.52;72.88
76611;BME280;65503;48.534;9.062;2023-08-06T01:04:29;96225.56;;;16.48;72.36
76611;BME280;65503;48.534;9.062;2023-08-06T01:07:12;96229.06;;;16.44;72.74
76611;BME280;65503;48.534;9.062;2023-08-06T01:10:15;96233.41;;;16.35;72.18
76611;BME280;65503;48.534;9.062;2023-08-06T01:12:52;96222.53;;;16.36;71.66
76611;BME280;65503;48.534;9.062;2023-08-06T01:15:24;96220.94;;;16.35;71.89
76611;BME280;65503;48.534;9.062;2023-08-06T01:17:54;96215.63;;;16.35;71.75
76611;BME280;65503;48.534;9.062;2023-08-06T01:20:21;96223.97;;;16.29;71.91
76611;BME280;65503;48.534;9.062;2023-08-06T01:23:06;96221.06;;;16.25;71.54
76611;BME280;65503;48.534;9.062;2023-08-06T01:25:46;96214.47;;;16.23;71.36
76611;BME280;65503;48.534;9.062;2023-08-06T01:28:20;96214.75;;;16.21;71.85
76611;BME280;65503;48.534;9.062;2023-08-06T01:30:50;96211.56;;;16.19;71.64
76611;BME280;65503;48.534;9.062;2023-08-06T01:33:21;96224.34;;;16.17;72.45
76611;BME280;65503;48.534;9.062;2023-08-06T01:35:50;96215.66;;;16.11;73.13
76611;BME280;65503;48.534;9.062;2023-08-06T01:38:17;96219.13;;;16.07;73.03
76611;BME280;65503;48.534;9.062;2023-08-06T01:40:44;96222.44;;;15.99;73.72
76611;BME280;65503;48.534;9.062;2023-08-06T01:43:10;96212.47;;;15.86;73.54
76611;BME280;65503;48.534;9.062;2023-08-06T01:45:37;96211.47;;;15.82;72.81
76611;BME280;65503;48.534;9.062;2023-08-06T01:48:03;96195.28;;;15.78;73.15
76611;BME280;65503;48.534;9.062;2023-08-06T01:50:30;96197.22;;;15.73;73.42
76611;BME280;65503;48.534;9.062;2023-08-06T01:52:56;96204.22;;;15.63;73.16
76611;BME280;65503;48.534;9.062;2023-08-06T01:55:23;96194.13;;;15.65;72.83
76611;BME280;65503;48.534;9.062;2023-08-06T01:57:49;96194.63;;;15.67;72.82
76611;BME280;65503;48.534;9.062;2023-08-06T02:00:16;96197.84;;;15.64;74.84
76611;BME280;65503;48.534;9.062;2023-08-06T02:02:42;96192.59;;;15.59;73.88
76611;BME280;65503;48.534;9.062;2023-08-06T02:05:09;96184.09;;;15.57;74.42
76611;BME280;65503;48.534;9.062;2023-08-06T02:07:36;96180.38;;;15.58;73.96
76611;BME280;65503;48.534;9.062;2023-08-06T02:10:02;96183.31;;;15.57;73.09
76611;BME280;65503;48.534;9.062;2023-08-06T02:12:29;96179.38;;;15.54;72.81
76611;BME280;65503;48.534;9.062;2023-08-06T02:14:55;96167.47;;;15.47;73.21
76611;BME280;65503;48.534;9.062;2023-08-06T02:17:22;96165.09;;;15.45;73.04
76611;BME280;65503;48.534;9.062;2023-08-06T02:19:49;96168.38;;;15.37;72.97
76611;BME280;65503;48.534;9.062;2023-08-06T02:22:16;96167.06;;;15.35;73.12
76611;BME280;65503;48.534;9.062;2023-08-06T02:24:42;96158.09;;;15.30;72.75
76611;BME280;65503;48.534;9.062;2023-08-06T02:27:08;96168.22;;;15.23;73.56
76611;BME280;65503;48.534;9.062;2023-08-06T02:29:35;96155.81;;;15.19;73.69
76611;BME280;65503;48.534;9.062;2023-08-06T02:32:02;96160.03;;;15.20;73.53
76611;BME280;65503;48.534;9.062;2023-08-06T02:34:28;96162.13;;;15.23;73.39
76611;BME280;65503;48.534;9.062;2023-08-06T02:36:55;96157.38;;;15.20;73.33
76611;BME280;65503;48.534;9.062;2023-08-06T02:39:21;96159.53;;;15.18;73.50
76611;BME280;65503;48.534;9.062;2023-08-06T02:41:48;96153.66;;;15.21;73.67
76611;BME280;65503;48.534;9.062;2023-08-06T02:44:14;96155.81;;;15.19;74.25
76611;BME280;65503;48.534;9.062;2023-08-06T02:46:41;96156.28;;;15.21;74.24
76611;BME280;65503;48.534;9.062;2023-08-06T02:49:07;96149.38;;;15.25;74.19
76611;BME280;65503;48.534;9.062;2023-08-06T02:51:34;96144.53;;;15.32;74.42
76611;BME280;65503;48.534;9.062;2023-08-06T02:54:01;96142.34;;;15.39;74.50
76611;BME280;65503;48.534;9.062;2023-08-06T02:56:27;96142.31;;;15.44;74.72
76611;BME280;65503;48.534;9.062;2023-08-06T02:58:54;96144.38;;;15.52;74.09
76611;BME280;65503;48.534;9.062;2023-08-06T03:01:20;96136.66;;;15.56;74.51
76611;BME280;65503;48.534;9.062;2023-08-06T03:03:47;96127.91;;;15.55;74.13
76611;BME280;65503;48.534;9.062;2023-08-06T03:06:13;96110.44;;;15.54;73.57
76611;BME280;65503;48.534;9.062;2023-08-06T03:08:40;96112.56;;;15.52;73.41
76611;BME280;65503;48.534;9.062;2023-08-06T03:11:06;96108.06;;;15.53;73.41
76611;BME280;65503;48.534;9.062;2023-08-06T03:13:33;96110.44;;;15.54;73.60
76611;BME280;65503;48.534;9.062;2023-08-06T03:16:00;96113.56;;;15.56;72.93
76611;BME280;65503;48.534;9.062;2023-08-06T03:18:27;96114.59;;;15.60;72.67
76611;BME280;65503;48.534;9.062;2023-08-06T03:20:54;96111.91;;;15.65;72.72
76611;BME280;65503;48.534;9.062;2023-08-06T03:23:20;96117.09;;;15.76;72.66
76611;BME280;65503;48.534;9.062;2023-08-06T03:25:47;96111.66;;;15.86;71.98
76611;BME280;65503;48.534;9.062;2023-08-06T03:28:13;96105.22;;;15.92;70.74
76611;BME280;65503;48.534;9.062;2023-08-06T03:30:40;96116.81;;;15.96;70.44
76611;BME280;65503;48.534;9.062;2023-08-06T03:33:07;96123.72;;;15.97;70.03
76611;BME280;65503;48.534;9.062;2023-08-06T03:35:33;96127.44;;;15.96;69.82
76611;BME280;65503;48.534;9.062;2023-08-06T03:38:00;96121.59;;;15.99;70.00
76611;BME280;65503;48.534;9.062;2023-08-06T03:40:26;96133.78;;;16.00;70.04
76611;BME280;65503;48.534;9.062;2023-08-06T03:42:53;96128.47;;;16.00;70.21
76611;BME280;65503;48.534;9.062;2023-08-06T03:45:19;96131.63;;;16.02;71.13
76611;BME280;65503;48.534;9.062;2023-08-06T03:47:46;96133.53;;;15.96;69.46
76611;BME280;65503;48.534;9.062;2023-08-06T03:50:13;96125.75;;;16.05;70.36
76611;BME280;65503;48.534;9.062;2023-08-06T03:52:39;96121.97;;;16.11;69.99
76611;BME280;65503;48.534;9.062;2023-08-06T03:55:06;96126.38;;;15.97;70.08
76611;BME280;65503;48.534;9.062;2023-08-06T03:57:33;96113.22;;;15.87;71.02
76611;BME280;65503;48.534;9.062;2023-08-06T03:59:59;96107.94;;;15.87;71.43
76611;BME280;65503;48.534;9.062;2023-08-06T04:02:26;96122.59;;;15.79;71.57
76611;BME280;65503;48.534;9.062;2023-08-06T04:04:52;96125.66;;;15.67;72.82
76611;BME280;65503;48.534;9.062;2023-08-06T04:07:20;96116.06;;;15.72;72.97
76611;BME280;65503;48.534;9.062;2023-08-06T04:09:54;96126.28;;;15.59;74.21
76611;BME280;65503;48.534;9.062;2023-08-06T04:12:21;96124.63;;;15.35;75.20
76611;BME280;65503;48.534;9.062;2023-08-06T04:14:49;96125.25;;;15.55;74.76
76611;BME280;65503;48.534;9.062;2023-08-06T04:17:16;96131.81;;;15.34;75.09
76611;BME280;65503;48.534;9.062;2023-08-06T04:19:42;96126.03;;;15.56;74.29
76611;BME280;65503;48.534;9.062;2023-08-06T04:22:09;96123.84;;;15.63;73.26
76611;BME280;65503;48.534;9.062;2023-08-06T04:24:35;96124.38;;;15.36;73.29
76611;BME280;65503;48.534;9.062;2023-08-06T04:27:02;96125.00;;;15.23;73.96
76611;BME280;65503;48.534;9.062;2023-08-06T04:29:28;96134.59;;;15.19;74.49
76611;BME280;65503;48.534;9.062;2023-08-06T04:31:55;96132.28;;;15.41;73.98
76611;BME280;65503;48.534;9.062;2023-08-06T04:34:21;96113.41;;;15.19;74.08
76611;BME280;65503;48.534;9.062;2023-08-06T04:36:48;96132.91;;;15.28;74.46
76611;BME280;65503;48.534;9.062;2023-08-06T04:39:15;96141.94;;;15.27;74.37
76611;BME280;65503;48.534;9.062;2023-08-06T04:41:41;96138.09;;;15.43;74.24
76611;BME280;65503;48.534;9.062;2023-08-06T04:44:08;96144.91;;;15.49;74.24
76611;BME280;65503;48.534;9.062;2023-08-06T04:46:34;96144.06;;;15.59;73.36
76611;BME280;65503;48.534;9.062;2023-08-06T04:49:01;96143.94;;;15.69;73.28
76611;BME280;65503;48.534;9.062;2023-08-06T04:51:27;96144.84;;;15.59;73.75
76611;BME280;65503;48.534;9.062;2023-08-06T04:53:54;96141.97;;;15.80;73.84
76611;BME280;65503;48.534;9.062;2023-08-06T04:56:21;96138.75;;;15.83;73.58
76611;BME280;65503;48.534;9.062;2023-08-06T04:58:47;96145.53;;;15.94;73.92
76611;BME280;65503;48.534;9.062;2023-08-06T05:01:14;96156.47;;;16.11;72.79
76611;BME280;65503;48.534;9.062;2023-08-06T05:03:41;96150.34;;;16.34;72.28
76611;BME280;65503;48.534;9.062;2023-08-06T05:06:07;96148.34;;;16.64;71.07
76611;BME280;65503;48.534;9.062;2023-08-06T05:08:34;96146.16;;;17.03;67.72
76611;BME280;65503;48.534;9.062;2023-08-06T05:11:01;96142.03;;;16.78;68.14
76611;BME280;65503;48.534;9.062;2023-08-06T05:13:27;96139.88;;;16.62;67.45
76611;BME280;65503;48.534;9.062;2023-08-06T05:15:54;96150.19;;;16.44;67.58
76611;BME280;65503;48.534;9.062;2023-08-06T05:18:21;96143.66;;;16.56;67.78
76611;BME280;65503;48.534;9.062;2023-08-06T05:20:48;96138.50;;;16.64;67.61
76611;BME280;65503;48.534;9.062;2023-08-06T05:23:14;96141.00;;;16.93;67.66
76611;BME280;65503;48.534;9.062;2023-08-06T05:25:41;96154.00;;;17.27;65.21
76611;BME280;65503;48.534;9.062;2023-08-06T05:28:08;96147.00;;;17.17;66.14
76611;BME280;65503;48.534;9.062;2023-08-06T05:30:39;96148.75;;;17.08;66.12
76611;BME280;65503;48.534;9.062;2023-08-06T05:33:05;96151.88;;;17.10;66.44
76611;BME280;65503;48.534;9.062;2023-08-06T05:35:32;96154.59;;;16.73;67.09
76611;BME280;65503;48.534;9.062;2023-08-06T05:37:59;96160.41;;;16.75;66.75
76611;BME280;65503;48.534;9.062;2023-08-06T05:40:26;96151.78;;;16.83;66.94
76611;BME280;65503;48.534;9.062;2023-08-06T05:42:55;96152.22;;;16.90;66.61
76611;BME280;65503;48.534;9.062;2023-08-06T05:45:22;96152.31;;;16.85;65.99
76611;BME280;65503;48.534;9.062;2023-08-06T05:47:48;96158.34;;;16.72;66.40
76611;BME280;65503;48.534;9.062;2023-08-06T05:50:15;96149.22;;;16.78;66.17
76611;BME280;65503;48.534;9.062;2023-08-06T05:52:43;96169.59;;;16.82;66.06
76611;BME280;65503;48.534;9.062;2023-08-06T05:55:10;96166.38;;;16.67;65.85
76611;BME280;65503;48.534;9.062;2023-08-06T05:57:37;96172.66;;;16.33;66.49
76611;BME280;65503;48.534;9.062;2023-08-06T06:00:03;96170.53;;;16.30;67.18
76611;BME280;65503;48.534;9.062;2023-08-06T06:02:32;96170.00;;;16.33;67.82
76611;BME280;65503;48.534;9.062;2023-08-06T06:04:59;96176.31;;;16.37;67.62
76611;BME280;65503;48.534;9.062;2023-08-06T06:07:25;96161.06;;;16.24;68.27
76611;BME280;65503;48.534;9.062;2023-08-06T06:09:52;96171.44;;;16.44;67.92
76611;BME280;65503;48.534;9.062;2023-08-06T06:12:18;96166.56;;;16.51;67.96
76611;BME280;65503;48.534;9.062;2023-08-06T06:14:45;96174.19;;;16.77;67.94
76611;BME280;65503;48.534;9.062;2023-08-06T06:17:11;96177.84;;;17.00;67.13
76611;BME280;65503;48.534;9.062;2023-08-06T06:19:38;96184.94;;;17.04;66.14
76611;BME280;65503;48.534;9.062;2023-08-06T06:22:05;96186.94;;;16.37;68.08
76611;BME280;65503;48.534;9.062;2023-08-06T06:24:32;96182.09;;;15.97;70.27
76611;BME280;65503;48.534;9.062;2023-08-06T06:26:58;96198.47;;;16.04;71.01
76611;BME280;65503;48.534;9.062;2023-08-06T06:29:25;96184.34;;;16.08;71.19
76611;BME280;65503;48.534;9.062;2023-08-06T06:31:52;96184.47;;;16.22;70.88
76611;BME280;65503;48.534;9.062;2023-08-06T06:34:19;96195.88;;;16.23;70.13
76611;BME280;65503;48.534;9.062;2023-08-06T06:36:45;96190.19;;;16.29;70.59
76611;BME280;65503;48.534;9.062;2023-08-06T06:39:12;96198.56;;;16.41;70.49
76611;BME280;65503;48.534;9.062;2023-08-06T06:41:38;96192.03;;;16.34;70.39
76611;BME280;65503;48.534;9.062;2023-08-06T06:44:05;96196.63;;;16.28;69.70
76611;BME280;65503;48.534;9.062;2023-08-06T06:46:32;96209.44;;;16.21;70.39
76611;BME280;65503;48.534;9.062;2023-08-06T06:48:58;96198.59;;;15.94;71.33
76611;BME280;65503;48.534;9.062;2023-08-06T06:51:25;96200.72;;;15.92;71.85
76611;BME280;65503;48.534;9.062;2023-08-06T06:53:51;96201.66;;;16.06;71.73
76611;BME280;65503;48.534;9.062;2023-08-06T06:56:18;96198.22;;;16.24;71.38
76611;BME280;65503;48.534;9.062;2023-08-06T06:58:44;96201.41;;;16.26;70.31
76611;BME280;65503;48.534;9.062;2023-08-06T07:01:11;96204.13;;;16.21;69.98
76611;BME280;65503;48.534;9.062;2023-08-06T07:03:38;96196.22;;;16.16;70.28
76611;BME280;65503;48.534;9.062;2023-08-06T07:06:05;96202.41;;;16.30;69.94
76611;BME280;65503;48.534;9.062;2023-08-06T07:08:33;96205.44;;;16.42;70.41
76611;BME280;65503;48.534;9.062;2023-08-06T07:11:03;96204.78;;;16.32;68.92
76611;BME280;65503;48.534;9.062;2023-08-06T07:13:30;96204.44;;;16.38;70.16
76611;BME280;65503;48.534;9.062;2023-08-06T07:15:57;96210.56;;;16.15;71.15
76611;BME280;65503;48.534;9.062;2023-08-06T07:18:24;96204.78;;;15.60;73.52
76611;BME280;65503;48.534;9.062;2023-08-06T07:20:52;96202.97;;;15.80;73.63
76611;BME280;65503;48.534;9.062;2023-08-06T07:23:24;96208.03;;;15.47;73.96
76611;BME280;65503;48.534;9.062;2023-08-06T07:25:51;96202.00;;;15.42;74.19
76611;BME280;65503;48.534;9.062;2023-08-06T07:28:18;96206.97;;;15.48;74.58
76611;BME280;65503;48.534;9.062;2023-08-06T07:30:45;96206.28;;;15.66;74.03
76611;BME280;65503;48.534;9.062;2023-08-06T07:33:12;96205.78;;;15.64;73.87
76611;BME280;65503;48.534;9.062;2023-08-06T07:35:38;96213.13;;;15.73;73.17
76611;BME280;65503;48.534;9.062;2023-08-06T07:38:05;96200.03;;;15.57;73.21
76611;BME280;65503;48.534;9.062;2023-08-06T07:40:32;96209.03;;;15.56;74.02
76611;BME280;65503;48.534;9.062;2023-08-06T07:42:58;96213.03;;;15.83;73.57
76611;BME280;65503;48.534;9.062;2023-08-06T07:45:25;96222.09;;;16.05;72.49
76611;BME280;65503;48.534;9.062;2023-08-06T07:47:53;96213.84;;;16.07;72.11
76611;BME280;65503;48.534;9.062;2023-08-06T07:50:20;96217.78;;;16.09;72.29
76611;BME280;65503;48.534;9.062;2023-08-06T07:52:46;96215.94;;;16.10;72.01
76611;BME280;65503;48.534;9.062;2023-08-06T07:55:13;96226.66;;;16.00;71.83
76611;BME280;65503;48.534;9.062;2023-08-06T07:57:40;96221.84;;;16.02;72.04
76611;BME280;65503;48.534;9.062;2023-08-06T08:00:07;96219.72;;;16.04;70.22
76611;BME280;65503;48.534;9.062;2023-08-06T08:02:35;96211.91;;;16.36;69.70
76611;BME280;65503;48.534;9.062;2023-08-06T08:05:02;96221.25;;;16.52;69.69
76611;BME280;65503;48.534;9.062;2023-08-06T08:07:28;96221.69;;;16.17;68.83
76611;BME280;65503;48.534;9.062;2023-08-06T08:09:56;96221.13;;;15.96;70.74
76611;BME280;65503;48.534;9.062;2023-08-06T08:12:23;96227.50;;;16.19;69.55
76611;BME280;65503;48.534;9.062;2023-08-06T08:14:50;96223.91;;;16.34;69.98
76611;BME280;65503;48.534;9.062;2023-08-06T08:17:16;96221.97;;;15.92;70.68
76611;BME280;65503;48.534;9.062;2023-08-06T08:19:43;96233.91;;;15.65;71.85
76611;BME280;65503;48.534;9.062;2023-08-06T08:22:09;96230.25;;;15.56;72.88
76611;BME280;65503;48.534;9.062;2023-08-06T08:24:37;96224.44;;;15.49;72.37
76611;BME280;65503;48.534;9.062;2023-08-06T08:27:04;96224.47;;;15.54;72.74
76611;BME280;65503;48.534;9.062;2023-08-06T08:29:30;96224.59;;;15.34;73.97
76611;BME280;65503;48.534;9.062;2023-08-06T08:31:57;96243.22;;;15.24;74.31
76611;BME280;65503;48.534;9.062;2023-08-06T08:34:23;96230.16;;;15.38;74.22
76611;BME280;65503;48.534;9.062;2023-08-06T08:36:50;96234.81;;;15.80;72.95
76611;BME280;65503;48.534;9.062;2023-08-06T08:39:16;96213.69;;;15.69;71.88
76611;BME280;65503;48.534;9.062;2023-08-06T08:41:43;96225.13;;;15.94;71.97
76611;BME280;65503;48.534;9.062;2023-08-06T08:44:10;96225.91;;;16.66;70.02
76611;BME280;65503;48.534;9.062;2023-08-06T08:46:40;96223.69;;;16.73;67.93
76611;BME280;65503;48.534;9.062;2023-08-06T08:49:07;96222.34;;;16.51;69.47
76611;BME280;65503;48.534;9.062;2023-08-06T08:51:34;96226.63;;;16.29;69.64
76611;BME280;65503;48.534;9.062;2023-08-06T08:54:04;96232.94;;;16.09;71.53
76611;BME280;65503;48.534;9.062;2023-08-06T08:56:32;96233.84;;;16.23;71.17
76611;BME280;65503;48.534;9.062;2023-08-06T08:58:58;96223.91;;;16.10;71.08
76611;BME280;65503;48.534;9.062;2023-08-06T09:01:27;96233.94;;;16.13;71.52
76611;BME280;65503;48.534;9.062;2023-08-06T09:03:55;96232.59;;;16.39;70.94
76611;BME280;65503;48.534;9.062;2023-08-06T09:06:25;96242.31;;;16.25;70.97
76611;BME280;65503;48.534;9.062;2023-08-06T09:09:06;96235.00;;;15.88;72.91
76611;BME280;65503;48.534;9.062;2023-08-06T09:11:39;96249.66;;;15.81;74.01
76611;BME280;65503;48.534;9.062;2023-08-06T09:14:08;96252.03;;;16.11;73.85
76611;BME280;65503;48.534;9.062;2023-08-06T09:16:35;96245.00;;;16.68;71.77
76611;BME280;65503;48.534;9.062;2023-08-06T09:19:11;96239.13;;;16.71;69.96
76611;BME280;65503;48.534;9.062;2023-08-06T09:21:40;96249.63;;;17.18;68.63
76611;BME280;65503;48.534;9.062;2023-08-06T09:24:10;96250.91;;;16.83;69.49
76611;BME280;65503;48.534;9.062;2023-08-06T09:26:38;96239.53;;;17.15;68.35
76611;BME280;65503;48.534;9.062;2023-08-06T09:29:06;96249.66;;;17.32;66.84
76611;BME280;65503;48.534;9.062;2023-08-06T09:31:45;96243.66;;;17.91;66.03
76611;BME280;65503;48.534;9.062;2023-08-06T09:34:15;96252.00;;;17.71;66.58
76611;BME280;65503;48.534;9.062;2023-08-06T09:36:46;96251.66;;;17.59;67.64
76611;BME280;65503;48.534;9.062;2023-08-06T09:39:13;96260.53;;;16.98;69.02
76611;BME280;65503;48.534;9.062;2023-08-06T09:41:42;96254.72;;;16.30;71.17
76611;BME280;65503;48.534;9.062;2023-08-06T09:44:15;96265.16;;;15.68;73.42
76611;BME280;65503;48.534;9.062;2023-08-06T09:46:42;96263.81;;;16.00;73.04
76611;BME280;65503;48.534;9.062;2023-08-06T09:49:09;96262.41;;;16.31;72.35
76611;BME280;65503;48.534;9.062;2023-08-06T09:51:37;96268.19;;;16.38;73.05
76611;BME280;65503;48.534;9.062;2023-08-06T09:54:06;96261.75;;;16.68;71.75
76611;BME280;65503;48.534;9.062;2023-08-06T09:56:50;96271.34;;;16.64;72.68
76611;BME280;65503;48.534;9.062;2023-08-06T09:59:18;96268.84;;;16.49;72.60
76611;BME280;65503;48.534;9.062;2023-08-06T10:01:45;96265.72;;;16.18;73.78
76611;BME280;65503;48.534;9.062;2023-08-06T10:04:14;96264.16;;;15.93;74.37
76611;BME280;65503;48.534;9.062;2023-08-06T10:06:50;96269.34;;;15.75;74.20
76611;BME280;65503;48.534;9.062;2023-08-06T10:09:17;96279.06;;;15.50;75.94
76611;BME280;65503;48.534;9.062;2023-08-06T10:11:49;96278.00;;;15.56;76.33
76611;BME280;65503;48.534;9.062;2023-08-06T10:14:22;96271.53;;;15.67;75.13
76611;BME280;65503;48.534;9.062;2023-08-06T10:16:50;96269.34;;;15.75;75.48
76611;BME280;65503;48.534;9.062;2023-08-06T10:19:17;96264.75;;;15.85;75.73
76611;BME280;65503;48.534;9.062;2023-08-06T10:22:11;96265.47;;;16.20;73.88
76611;BME280;65503;48.534;9.062;2023-08-06T10:24:55;96272.81;;;16.28;75.13
76611;BME280;65503;48.534;9.062;2023-08-06T10:27:32;96268.19;;;16.38;74.20
76611;BME280;65503;48.534;9.062;2023-08-06T10:32:53;96279.97;;;16.75;72.73
76611;BME280;65503;48.534;9.062;2023-08-06T10:35:28;96284.34;;;17.08;71.62
76611;BME280;65503;48.534;9.062;2023-08-06T10:38:04;96274.16;;;16.25;73.60
76611;BME280;65503;48.534;9.062;2023-08-06T10:40:32;96287.50;;;16.20;73.50
76611;BME280;65503;48.534;9.062;2023-08-06T10:43:03;96297.53;;;15.99;74.12
76611;BME280;65503;48.534;9.062;2023-08-06T10:45:34;96305.38;;;15.81;75.96
76611;BME280;65503;48.534;9.062;2023-08-06T10:48:01;96309.84;;;16.14;75.59
76611;BME280;65503;48.534;9.062;2023-08-06T10:50:28;96301.56;;;16.21;74.85
76611;BME280;65503;48.534;9.062;2023-08-06T10:52:55;96298.09;;;15.62;75.89
76611;BME280;65503;48.534;9.062;2023-08-06T10:55:23;96304.19;;;15.97;76.30
76611;BME280;65503;48.534;9.062;2023-08-06T10:57:50;96304.66;;;16.04;76.46
76611;BME280;65503;48.534;9.062;2023-08-06T11:00:17;96303.25;;;16.11;76.66
76611;BME280;65503;48.534;9.062;2023-08-06T11:02:46;96309.47;;;15.97;75.82
76611;BME280;65503;48.534;9.062;2023-08-06T11:05:13;96308.13;;;15.70;76.31
76611;BME280;65503;48.534;9.062;2023-08-06T11:07:40;96317.91;;;15.75;77.33
76611;BME280;65503;48.534;9.062;2023-08-06T11:10:08;96324.19;;;16.13;76.36
76611;BME280;65503;48.534;9.062;2023-08-06T11:12:35;96322.16;;;16.05;75.80
76611;BME280;65503;48.534;9.062;2023-08-06T11:15:03;96334.44;;;15.96;76.27
76611;BME280;65503;48.534;9.062;2023-08-06T11:17:32;96335.44;;;16.05;75.71
76611;BME280;65503;48.534;9.062;2023-08-06T11:20:00;96338.13;;;16.00;75.91
76611;BME280;65503;48.534;9.062;2023-08-06T11:22:27;96346.25;;;15.80;76.30
76611;BME280;65503;48.534;9.062;2023-08-06T11:24:54;96337.13;;;15.91;76.28
76611;BME280;65503;48.534;9.062;2023-08-06T11:27:21;96347.56;;;15.82;76.67
76611;BME280;65503;48.534;9.062;2023-08-06T11:29:47;96345.31;;;15.65;76.98
76611;BME280;65503;48.534;9.062;2023-08-06T11:32:14;96335.31;;;15.47;76.65
76611;BME280;65503;48.534;9.062;2023-08-06T11:34:43;96350.38;;;15.13;77.60
76611;BME280;65503;48.534;9.062;2023-08-06T11:37:10;96351.72;;;15.49;77.97
76611;BME280;65503;48.534;9.062;2023-08-06T11:39:38;96348.41;;;15.73;76.87
76611;BME280;65503;48.534;9.062;2023-08-06T11:42:08;96353.63;;;15.88;76.48
76611;BME280;65503;48.534;9.062;2023-08-06T11:44:36;96351.47;;;15.90;76.19
76611;BME280;65503;48.534;9.062;2023-08-06T11:47:04;96353.00;;;15.96;76.84
76611;BME280;65503;48.534;9.062;2023-08-06T11:49:47;96350.56;;;16.33;74.84
76611;BME280;65503;48.534;9.062;2023-08-06T11:52:18;96356.22;;;16.50;73.98
76611;BME280;65503;48.534;9.062;2023-08-06T11:54:47;96351.84;;;16.88;74.33
76611;BME280;65503;48.534;9.062;2023-08-06T11:57:15;96348.38;;;16.88;72.05
76611;BME280;65503;48.534;9.062;2023-08-06T11:59:43;96366.09;;;16.74;72.51
76611;BME280;65503;48.534;9.062;2023-08-06T12:02:10;96365.69;;;16.62;72.61
76611;BME280;65503;48.534;9.062;2023-08-06T12:05:15;96371.13;;;16.46;70.81
76611;BME280;65503;48.534;9.062;2023-08-06T12:07:43;96371.03;;;16.57;71.60
76611;BME280;65503;48.534;9.062;2023-08-06T12:10:12;96381.59;;;16.67;70.83
76611;BME280;65503;48.534;9.062;2023-08-06T12:12:39;96386.22;;;16.80;71.01
76611;BME280;65503;48.534;9.062;2023-08-06T12:15:06;96396.94;;;16.70;71.02
76611;BME280;65503;48.534;9.062;2023-08-06T12:17:34;96414.22;;;16.96;69.81
76611;BME280;65503;48.534;9.062;2023-08-06T12:20:01;96403.91;;;16.03;68.65
76611;BME280;65503;48.534;9.062;2023-08-06T12:22:27;96414.03;;;15.96;69.96
76611;BME280;65503;48.534;9.062;2023-08-06T12:24:54;96405.78;;;16.31;69.90
76611;BME280;65503;48.534;9.062;2023-08-06T12:27:21;96412.41;;;16.05;69.09
76611;BME280;65503;48.534;9.062;2023-08-06T12:29:48;96408.97;;;16.33;68.80
76611;BME280;65503;48.534;9.062;2023-08-06T12:32:15;96408.09;;;16.72;66.16
76611;BME280;65503;48.534;9.062;2023-08-06T12:34:42;96409.78;;;16.86;65.31
76611;BME280;65503;48.534;9.062;2023-08-06T12:37:19;96417.88;;;17.00;66.09
76611;BME280;65503;48.534;9.062;2023-08-06T12:39:45;96423.81;;;16.92;65.70
76611;BME280;65503;48.534;9.062;2023-08-06T12:42:12;96426.00;;;17.32;66.67
76611;BME280;65503;48.534;9.062;2023-08-06T12:44:39;96437.44;;;17.09;65.86
76611;BME280;65503;48.534;9.062;2023-08-06T12:47:07;96420.47;;;16.81;66.70
76611;BME280;65503;48.534;9.062;2023-08-06T12:49:33;96423.69;;;16.49;66.60
76611;BME280;65503;48.534;9.062;2023-08-06T12:52:00;96422.69;;;16.98;65.57
76611;BME280;65503;48.534;9.062;2023-08-06T12:54:27;96421.00;;;17.07;64.04
76611;BME280;65503;48.534;9.062;2023-08-06T12:56:54;96429.94;;;16.64;65.52
76611;BME280;65503;48.534;9.062;2023-08-06T12:59:21;96427.28;;;16.69;66.21
76611;BME280;65503;48.534;9.062;2023-08-06T13:01:47;96425.78;;;16.81;65.17
76611;BME280;65503;48.534;9.062;2023-08-06T13:04:14;96427.16;;;16.79;65.22
76611;BME280;65503;48.534;9.062;2023-08-06T13:06:48;96434.16;;;16.93;64.32